Aérodrome :
LOGIN :

S'inscrire | Disclaimer

   EN    FR    IT 

 










Légende :    VFR   VFR Marginal   IFR   IFR Intensif   IFR Très Intensif
Visi : 
Plafond : 
>= 8 km
>= 3000ft
5 à 8 km
1000 à 3000 ft
1500m à 5 km
500 à 1000 ft
800 à 1500m
200 à 500 ft
< 800m
< 200 ft
Symboles :   Orages  Brouillard  Fortes neiges  Fortes précipitations  Vent > 20 kt
SIGMETs :   Divers  Orages  Givrage  Turbulence  Onde Orograph.  Cendres Volcan.






- Altitude de l'aérodrome : 13 ft
- Code IATA : SNR


LFRZ - St-Nazaire

DERNIER METAR :
  • 290830Z AUTO 30003KT 5000 -DZ BR VV/// 06/05 Q1020 BECMG NSC

METARs EXPIRÉS :
  • 290800Z AUTO 31003KT 0350 R25///// FG BKN008 OVC012 03/03 Q1019 BECMG CAVOK
  • 290730Z AUTO VRB02KT 0350 0300 R25///// FG BKN013 05/04 Q1019 BECMG CAVOK
  • 290700Z AUTO 34002KT 1700 BR FEW016 05/05 Q1019 BECMG 9999 NSW
  • 290630Z AUTO 30003KT 270V340 5000 BR NSC 06/06 Q1019 NOSIG
  • 290600Z AUTO 34003KT 310V010 3400 BR FEW011 05/05 Q1019 NOSIG

TAF AMD TAF LFRZ
Valide du 29 à 07h jusqu'au 30 à 06h UTC


290757Z 2907/3006 27006KT CAVOK
TEMPO 2907/2909 3000 BR
PROB40
TEMPO 2907/2909 0300 FG VV///
BECMG 2919/2921 3000 BR BKN004
TEMPO 2921/3006 0500 FG VV///



MET'MAP, la Météo Aéronautique d'un coup d'oeil ! - Copyright ORBIFLY Décembre 2007 - Disclaimer

ORBIFLY MET'MAP TEAM :

Programmation & Développement : Alexandra Zaïnal
Sur une idée originale de : Baudouin d'Aumeries
Soutien technique & logistique : Manuel Goepfert
Assistance : Marc-Olivier Méhu




SOURCES & CREDITS :

   NOAA